sensor_id;sensor_type;location;lat;lon;timestamp;temperature;humidity
78541;SHT31;67835;51.968;5.646;2023-05-07T00:01:53;18.6;64.8
78541;SHT31;67835;51.968;5.646;2023-05-07T00:04:22;18.6;64.9
78541;SHT31;67835;51.968;5.646;2023-05-07T00:06:50;18.6;65.0
78541;SHT31;67835;51.968;5.646;2023-05-07T00:09:19;18.6;64.8
78541;SHT31;67835;51.968;5.646;2023-05-07T00:11:49;18.6;64.9
78541;SHT31;67835;51.968;5.646;2023-05-07T00:14:18;18.5;65.1
78541;SHT31;67835;51.968;5.646;2023-05-07T00:16:47;18.5;65.0
78541;SHT31;67835;51.968;5.646;2023-05-07T00:19:16;18.5;65.4
78541;SHT31;67835;51.968;5.646;2023-05-07T00:21:44;18.5;65.5
78541;SHT31;67835;51.968;5.646;2023-05-07T00:24:13;18.5;65.6
78541;SHT31;67835;51.968;5.646;2023-05-07T00:26:41;18.5;65.5
78541;SHT31;67835;51.968;5.646;2023-05-07T00:29:10;18.5;65.8
78541;SHT31;67835;51.968;5.646;2023-05-07T00:31:41;18.4;65.8
78541;SHT31;67835;51.968;5.646;2023-05-07T00:34:09;18.4;65.6
78541;SHT31;67835;51.968;5.646;2023-05-07T00:36:38;18.4;65.6
78541;SHT31;67835;51.968;5.646;2023-05-07T00:39:06;18.4;66.0
78541;SHT31;67835;51.968;5.646;2023-05-07T00:41:35;18.3;66.0
78541;SHT31;67835;51.968;5.646;2023-05-07T00:44:04;18.3;66.2
78541;SHT31;67835;51.968;5.646;2023-05-07T00:46:33;18.3;66.2
78541;SHT31;67835;51.968;5.646;2023-05-07T00:49:04;18.2;66.3
78541;SHT31;67835;51.968;5.646;2023-05-07T00:51:33;18.2;66.4
78541;SHT31;67835;51.968;5.646;2023-05-07T00:54:02;18.2;66.5
78541;SHT31;67835;51.968;5.646;2023-05-07T00:56:32;18.2;66.6
78541;SHT31;67835;51.968;5.646;2023-05-07T00:59:03;18.1;66.6
78541;SHT31;67835;51.968;5.646;2023-05-07T01:01:32;18.1;66.6
78541;SHT31;67835;51.968;5.646;2023-05-07T01:04:03;18.1;66.5
78541;SHT31;67835;51.968;5.646;2023-05-07T01:06:32;18.1;66.6
78541;SHT31;67835;51.968;5.646;2023-05-07T01:09:02;18.1;66.5
78541;SHT31;67835;51.968;5.646;2023-05-07T01:11:31;18.1;66.3
78541;SHT31;67835;51.968;5.646;2023-05-07T01:14:00;18.1;66.4
78541;SHT31;67835;51.968;5.646;2023-05-07T01:16:30;18.1;66.3
78541;SHT31;67835;51.968;5.646;2023-05-07T01:19:00;18.1;66.2
78541;SHT31;67835;51.968;5.646;2023-05-07T01:21:33;18.1;66.2
78541;SHT31;67835;51.968;5.646;2023-05-07T01:24:02;18.1;66.4
78541;SHT31;67835;51.968;5.646;2023-05-07T01:26:31;18.1;66.4
78541;SHT31;67835;51.968;5.646;2023-05-07T01:29:00;18.2;66.5
78541;SHT31;67835;51.968;5.646;2023-05-07T01:31:29;18.2;66.2
78541;SHT31;67835;51.968;5.646;2023-05-07T01:33:59;18.2;66.2
78541;SHT31;67835;51.968;5.646;2023-05-07T01:36:30;18.2;66.0
78541;SHT31;67835;51.968;5.646;2023-05-07T01:39:02;18.2;66.0
78541;SHT31;67835;51.968;5.646;2023-05-07T01:41:32;18.3;65.8
78541;SHT31;67835;51.968;5.646;2023-05-07T01:44:01;18.3;65.6
78541;SHT31;67835;51.968;5.646;2023-05-07T01:46:33;18.3;65.8
78541;SHT31;67835;51.968;5.646;2023-05-07T01:49:02;18.3;65.7
78541;SHT31;67835;51.968;5.646;2023-05-07T01:51:34;18.3;65.7
78541;SHT31;67835;51.968;5.646;2023-05-07T01:54:03;18.3;65.7
78541;SHT31;67835;51.968;5.646;2023-05-07T01:56:33;18.3;65.3
78541;SHT31;67835;51.968;5.646;2023-05-07T01:59:02;18.3;65.5
78541;SHT31;67835;51.968;5.646;2023-05-07T02:01:33;18.3;65.7
78541;SHT31;67835;51.968;5.646;2023-05-07T02:04:02;18.3;65.7
78541;SHT31;67835;51.968;5.646;2023-05-07T02:06:32;18.3;65.7
78541;SHT31;67835;51.968;5.646;2023-05-07T02:09:01;18.3;65.8
78541;SHT31;67835;51.968;5.646;2023-05-07T02:11:29;18.3;65.6
78541;SHT31;67835;51.968;5.646;2023-05-07T02:13:58;18.3;65.5
78541;SHT31;67835;51.968;5.646;2023-05-07T02:16:27;18.3;65.4
78541;SHT31;67835;51.968;5.646;2023-05-07T02:18:56;18.3;65.3
78541;SHT31;67835;51.968;5.646;2023-05-07T02:21:24;18.3;65.4
78541;SHT31;67835;51.968;5.646;2023-05-07T02:23:53;18.3;65.6
78541;SHT31;67835;51.968;5.646;2023-05-07T02:26:22;18.3;65.3
78541;SHT31;67835;51.968;5.646;2023-05-07T02:28:51;18.4;65.3
78541;SHT31;67835;51.968;5.646;2023-05-07T02:31:20;18.4;65.0
78541;SHT31;67835;51.968;5.646;2023-05-07T02:33:48;18.4;64.8
78541;SHT31;67835;51.968;5.646;2023-05-07T02:36:17;18.4;64.7
78541;SHT31;67835;51.968;5.646;2023-05-07T02:38:47;18.4;64.6
78541;SHT31;67835;51.968;5.646;2023-05-07T02:41:18;18.4;64.4
78541;SHT31;67835;51.968;5.646;2023-05-07T02:43:46;18.4;64.2
78541;SHT31;67835;51.968;5.646;2023-05-07T02:46:15;18.4;63.9
78541;SHT31;67835;51.968;5.646;2023-05-07T02:48:44;18.4;64.2
78541;SHT31;67835;51.968;5.646;2023-05-07T02:51:12;18.4;63.2
78541;SHT31;67835;51.968;5.646;2023-05-07T02:53:41;18.4;63.6
78541;SHT31;67835;51.968;5.646;2023-05-07T02:56:09;18.4;63.7
78541;SHT31;67835;51.968;5.646;2023-05-07T02:58:38;18.4;63.3
78541;SHT31;67835;51.968;5.646;2023-05-07T03:01:09;18.4;63.4
78541;SHT31;67835;51.968;5.646;2023-05-07T03:03:38;18.4;63.8
78541;SHT31;67835;51.968;5.646;2023-05-07T03:06:10;18.4;63.5
78541;SHT31;67835;51.968;5.646;2023-05-07T03:08:38;18.4;63.4
78541;SHT31;67835;51.968;5.646;2023-05-07T03:11:09;18.4;63.2
78541;SHT31;67835;51.968;5.646;2023-05-07T03:13:38;18.4;63.2
78541;SHT31;67835;51.968;5.646;2023-05-07T03:16:07;18.5;63.3
78541;SHT31;67835;51.968;5.646;2023-05-07T03:18:36;18.5;63.2
78541;SHT31;67835;51.968;5.646;2023-05-07T03:21:05;18.5;63.3
78541;SHT31;67835;51.968;5.646;2023-05-07T03:23:33;18.5;63.0
78541;SHT31;67835;51.968;5.646;2023-05-07T03:26:02;18.5;62.8
78541;SHT31;67835;51.968;5.646;2023-05-07T03:28:33;18.5;62.6
78541;SHT31;67835;51.968;5.646;2023-05-07T03:31:01;18.5;62.4
78541;SHT31;67835;51.968;5.646;2023-05-07T03:33:33;18.5;62.3
78541;SHT31;67835;51.968;5.646;2023-05-07T03:36:03;18.5;62.4
78541;SHT31;67835;51.968;5.646;2023-05-07T03:38:33;18.5;62.5
78541;SHT31;67835;51.968;5.646;2023-05-07T03:41:03;18.5;62.6
78541;SHT31;67835;51.968;5.646;2023-05-07T03:43:32;18.4;62.9
78541;SHT31;67835;51.968;5.646;2023-05-07T03:46:01;18.4;63.1
78541;SHT31;67835;51.968;5.646;2023-05-07T03:48:30;18.4;63.1
78541;SHT31;67835;51.968;5.646;2023-05-07T03:50:59;18.4;63.4
78541;SHT31;67835;51.968;5.646;2023-05-07T03:53:28;18.3;63.7
78541;SHT31;67835;51.968;5.646;2023-05-07T03:55:56;18.3;63.9
78541;SHT31;67835;51.968;5.646;2023-05-07T03:58:27;18.3;64.1
78541;SHT31;67835;51.968;5.646;2023-05-07T04:00:56;18.3;64.3
78541;SHT31;67835;51.968;5.646;2023-05-07T04:03:24;18.2;64.3
78541;SHT31;67835;51.968;5.646;2023-05-07T04:05:53;18.2;64.4
78541;SHT31;67835;51.968;5.646;2023-05-07T04:08:22;18.2;64.7
78541;SHT31;67835;51.968;5.646;2023-05-07T04:10:54;18.2;64.8
78541;SHT31;67835;51.968;5.646;2023-05-07T04:13:23;18.2;64.9
78541;SHT31;67835;51.968;5.646;2023-05-07T04:15:52;18.2;64.8
78541;SHT31;67835;51.968;5.646;2023-05-07T04:18:21;18.2;65.0
78541;SHT31;67835;51.968;5.646;2023-05-07T04:20:50;18.1;64.9
78541;SHT31;67835;51.968;5.646;2023-05-07T04:23:19;18.1;65.0
78541;SHT31;67835;51.968;5.646;2023-05-07T04:25:48;18.1;65.2
78541;SHT31;67835;51.968;5.646;2023-05-07T04:28:16;18.1;65.3
78541;SHT31;67835;51.968;5.646;2023-05-07T04:30:45;18.1;65.2
78541;SHT31;67835;51.968;5.646;2023-05-07T04:33:14;18.2;65.2
78541;SHT31;67835;51.968;5.646;2023-05-07T04:35:43;18.2;65.1
78541;SHT31;67835;51.968;5.646;2023-05-07T04:38:12;18.2;64.9
78541;SHT31;67835;51.968;5.646;2023-05-07T04:40:41;18.2;65.0
78541;SHT31;67835;51.968;5.646;2023-05-07T04:43:10;18.2;65.1
78541;SHT31;67835;51.968;5.646;2023-05-07T04:45:39;18.2;65.1
78541;SHT31;67835;51.968;5.646;2023-05-07T04:48:09;18.2;65.4
78541;SHT31;67835;51.968;5.646;2023-05-07T04:50:37;18.2;65.4
78541;SHT31;67835;51.968;5.646;2023-05-07T04:53:06;18.2;65.4
78541;SHT31;67835;51.968;5.646;2023-05-07T04:55:34;18.2;65.5
78541;SHT31;67835;51.968;5.646;2023-05-07T04:58:05;18.3;65.3
78541;SHT31;67835;51.968;5.646;2023-05-07T05:00:34;18.3;65.4
78541;SHT31;67835;51.968;5.646;2023-05-07T05:03:03;18.3;65.3
78541;SHT31;67835;51.968;5.646;2023-05-07T05:05:31;18.3;65.3
78541;SHT31;67835;51.968;5.646;2023-05-07T05:08:00;18.3;65.2
78541;SHT31;67835;51.968;5.646;2023-05-07T05:10:28;18.3;65.1
78541;SHT31;67835;51.968;5.646;2023-05-07T05:12:57;18.3;65.3
78541;SHT31;67835;51.968;5.646;2023-05-07T05:15:26;18.3;65.2
78541;SHT31;67835;51.968;5.646;2023-05-07T05:17:55;18.3;65.3
78541;SHT31;67835;51.968;5.646;2023-05-07T05:20:23;18.3;65.3
78541;SHT31;67835;51.968;5.646;2023-05-07T05:22:52;18.3;65.3
78541;SHT31;67835;51.968;5.646;2023-05-07T05:25:20;18.3;65.4
78541;SHT31;67835;51.968;5.646;2023-05-07T05:27:49;18.3;65.6
78541;SHT31;67835;51.968;5.646;2023-05-07T05:30:20;18.3;65.6
78541;SHT31;67835;51.968;5.646;2023-05-07T05:32:48;18.3;65.9
78541;SHT31;67835;51.968;5.646;2023-05-07T05:35:17;18.3;66.1
78541;SHT31;67835;51.968;5.646;2023-05-07T05:37:45;18.3;66.2
78541;SHT31;67835;51.968;5.646;2023-05-07T05:40:15;18.3;66.2
78541;SHT31;67835;51.968;5.646;2023-05-07T05:42:43;18.3;66.2
78541;SHT31;67835;51.968;5.646;2023-05-07T05:45:12;18.3;66.4
78541;SHT31;67835;51.968;5.646;2023-05-07T05:47:41;18.3;66.2
78541;SHT31;67835;51.968;5.646;2023-05-07T05:50:10;18.4;66.1
78541;SHT31;67835;51.968;5.646;2023-05-07T05:52:39;18.4;65.8
78541;SHT31;67835;51.968;5.646;2023-05-07T05:55:09;18.4;65.8
78541;SHT31;67835;51.968;5.646;2023-05-07T05:57:38;18.4;66.0
78541;SHT31;67835;51.968;5.646;2023-05-07T06:00:08;18.5;65.8
78541;SHT31;67835;51.968;5.646;2023-05-07T06:02:37;18.5;65.8
78541;SHT31;67835;51.968;5.646;2023-05-07T06:05:09;18.5;65.8
78541;SHT31;67835;51.968;5.646;2023-05-07T06:07:38;18.5;65.5
78541;SHT31;67835;51.968;5.646;2023-05-07T06:10:08;18.5;65.8
78541;SHT31;67835;51.968;5.646;2023-05-07T06:12:36;18.5;65.7
78541;SHT31;67835;51.968;5.646;2023-05-07T06:15:06;18.5;65.8
78541;SHT31;67835;51.968;5.646;2023-05-07T06:17:37;18.6;65.9
78541;SHT31;67835;51.968;5.646;2023-05-07T06:20:07;18.6;65.7
78541;SHT31;67835;51.968;5.646;2023-05-07T06:22:35;18.6;65.6
78541;SHT31;67835;51.968;5.646;2023-05-07T06:25:05;18.6;65.6
78541;SHT31;67835;51.968;5.646;2023-05-07T06:27:33;18.6;65.7
78541;SHT31;67835;51.968;5.646;2023-05-07T06:30:02;18.7;65.8
78541;SHT31;67835;51.968;5.646;2023-05-07T06:32:31;18.7;65.8
78541;SHT31;67835;51.968;5.646;2023-05-07T06:35:00;18.7;66.0
78541;SHT31;67835;51.968;5.646;2023-05-07T06:37:29;18.8;66.5
78541;SHT31;67835;51.968;5.646;2023-05-07T06:39:57;18.8;65.9
78541;SHT31;67835;51.968;5.646;2023-05-07T06:42:26;18.9;65.4
78541;SHT31;67835;51.968;5.646;2023-05-07T06:44:55;18.9;65.5
78541;SHT31;67835;51.968;5.646;2023-05-07T06:47:24;18.9;65.3
78541;SHT31;67835;51.968;5.646;2023-05-07T06:49:52;19.0;65.0
78541;SHT31;67835;51.968;5.646;2023-05-07T06:52:21;19.0;64.9
78541;SHT31;67835;51.968;5.646;2023-05-07T06:54:51;19.0;64.9
78541;SHT31;67835;51.968;5.646;2023-05-07T06:57:20;19.1;65.2
78541;SHT31;67835;51.968;5.646;2023-05-07T06:59:48;19.1;65.5
78541;SHT31;67835;51.968;5.646;2023-05-07T07:02:17;19.2;65.4
78541;SHT31;67835;51.968;5.646;2023-05-07T07:04:45;19.3;65.0
78541;SHT31;67835;51.968;5.646;2023-05-07T07:07:14;19.4;64.2
78541;SHT31;67835;51.968;5.646;2023-05-07T07:09:43;19.5;63.9
78541;SHT31;67835;51.968;5.646;2023-05-07T07:12:11;19.5;63.5
78541;SHT31;67835;51.968;5.646;2023-05-07T07:14:40;19.6;62.7
78541;SHT31;67835;51.968;5.646;2023-05-07T07:17:08;19.6;62.9
78541;SHT31;67835;51.968;5.646;2023-05-07T07:19:37;19.7;63.5
78541;SHT31;67835;51.968;5.646;2023-05-07T07:22:06;19.7;63.4
78541;SHT31;67835;51.968;5.646;2023-05-07T07:24:34;19.7;63.3
78541;SHT31;67835;51.968;5.646;2023-05-07T07:27:03;19.7;63.1
78541;SHT31;67835;51.968;5.646;2023-05-07T07:29:31;19.7;63.4
78541;SHT31;67835;51.968;5.646;2023-05-07T07:32:00;19.7;63.6
78541;SHT31;67835;51.968;5.646;2023-05-07T07:34:28;19.7;63.3
78541;SHT31;67835;51.968;5.646;2023-05-07T07:36:57;19.7;63.0
78541;SHT31;67835;51.968;5.646;2023-05-07T07:39:30;19.7;63.8
78541;SHT31;67835;51.968;5.646;2023-05-07T07:41:59;19.8;63.6
78541;SHT31;67835;51.968;5.646;2023-05-07T07:44:30;19.8;63.4
78541;SHT31;67835;51.968;5.646;2023-05-07T07:46:59;19.8;63.0
78541;SHT31;67835;51.968;5.646;2023-05-07T07:49:28;19.9;63.9
78541;SHT31;67835;51.968;5.646;2023-05-07T07:51:56;19.9;63.6
78541;SHT31;67835;51.968;5.646;2023-05-07T07:54:26;20.0;63.5
78541;SHT31;67835;51.968;5.646;2023-05-07T07:56:55;20.2;63.0
78541;SHT31;67835;51.968;5.646;2023-05-07T07:59:24;20.3;62.2
78541;SHT31;67835;51.968;5.646;2023-05-07T08:01:55;20.4;61.2
78541;SHT31;67835;51.968;5.646;2023-05-07T08:04:23;20.5;61.0
78541;SHT31;67835;51.968;5.646;2023-05-07T08:06:52;20.6;60.9
78541;SHT31;67835;51.968;5.646;2023-05-07T08:09:22;20.6;60.3
78541;SHT31;67835;51.968;5.646;2023-05-07T08:11:50;20.7;59.8
78541;SHT31;67835;51.968;5.646;2023-05-07T08:14:21;20.7;60.3
78541;SHT31;67835;51.968;5.646;2023-05-07T08:16:50;20.8;60.1
78541;SHT31;67835;51.968;5.646;2023-05-07T08:19:19;20.8;59.7
78541;SHT31;67835;51.968;5.646;2023-05-07T08:21:48;20.9;58.6
78541;SHT31;67835;51.968;5.646;2023-05-07T08:24:17;20.9;59.3
78541;SHT31;67835;51.968;5.646;2023-05-07T08:26:46;21.0;59.4
78541;SHT31;67835;51.968;5.646;2023-05-07T08:29:16;21.0;59.1
78541;SHT31;67835;51.968;5.646;2023-05-07T08:31:44;21.1;59.2
78541;SHT31;67835;51.968;5.646;2023-05-07T08:34:13;21.2;59.3
78541;SHT31;67835;51.968;5.646;2023-05-07T08:36:42;21.3;58.6
78541;SHT31;67835;51.968;5.646;2023-05-07T08:39:13;21.3;58.4
78541;SHT31;67835;51.968;5.646;2023-05-07T08:41:43;21.4;58.3
78541;SHT31;67835;51.968;5.646;2023-05-07T08:44:14;21.5;59.2
78541;SHT31;67835;51.968;5.646;2023-05-07T08:46:45;21.7;58.2
78541;SHT31;67835;51.968;5.646;2023-05-07T08:49:15;22.0;57.5
78541;SHT31;67835;51.968;5.646;2023-05-07T08:51:44;22.2;57.5
78541;SHT31;67835;51.968;5.646;2023-05-07T08:54:16;22.6;56.8
78541;SHT31;67835;51.968;5.646;2023-05-07T08:56:46;23.0;55.3
78541;SHT31;67835;51.968;5.646;2023-05-07T08:59:14;23.5;53.9
78541;SHT31;67835;51.968;5.646;2023-05-07T09:01:43;23.8;52.4
78541;SHT31;67835;51.968;5.646;2023-05-07T09:04:12;24.1;50.9
78541;SHT31;67835;51.968;5.646;2023-05-07T09:06:41;24.4;50.7
78541;SHT31;67835;51.968;5.646;2023-05-07T09:09:14;24.7;49.4
78541;SHT31;67835;51.968;5.646;2023-05-07T09:11:45;25.1;49.2
78541;SHT31;67835;51.968;5.646;2023-05-07T09:14:14;25.4;47.6
78541;SHT31;67835;51.968;5.646;2023-05-07T09:16:43;25.7;46.0
78541;SHT31;67835;51.968;5.646;2023-05-07T09:19:11;25.9;45.1
78541;SHT31;67835;51.968;5.646;2023-05-07T09:21:40;26.0;45.9
78541;SHT31;67835;51.968;5.646;2023-05-07T09:24:08;26.1;46.3
78541;SHT31;67835;51.968;5.646;2023-05-07T09:26:39;26.3;45.8
78541;SHT31;67835;51.968;5.646;2023-05-07T09:29:10;26.4;46.0
78541;SHT31;67835;51.968;5.646;2023-05-07T09:31:39;26.5;45.6
78541;SHT31;67835;51.968;5.646;2023-05-07T09:34:09;26.7;45.2
78541;SHT31;67835;51.968;5.646;2023-05-07T09:36:40;26.8;44.4
78541;SHT31;67835;51.968;5.646;2023-05-07T09:39:09;26.9;44.0
78541;SHT31;67835;51.968;5.646;2023-05-07T09:41:45;27.0;43.7
78541;SHT31;67835;51.968;5.646;2023-05-07T09:44:16;27.1;42.9
78541;SHT31;67835;51.968;5.646;2023-05-07T09:46:48;27.1;43.3
78541;SHT31;67835;51.968;5.646;2023-05-07T09:49:23;27.1;43.1
78541;SHT31;67835;51.968;5.646;2023-05-07T09:51:52;27.1;42.3
78541;SHT31;67835;51.968;5.646;2023-05-07T09:54:23;27.1;42.4
78541;SHT31;67835;51.968;5.646;2023-05-07T09:56:55;27.1;42.2
78541;SHT31;67835;51.968;5.646;2023-05-07T09:59:24;27.1;41.8
78541;SHT31;67835;51.968;5.646;2023-05-07T10:01:57;27.0;41.5
78541;SHT31;67835;51.968;5.646;2023-05-07T10:04:27;26.9;41.1
78541;SHT31;67835;51.968;5.646;2023-05-07T10:06:58;26.8;42.0
78541;SHT31;67835;51.968;5.646;2023-05-07T10:09:29;26.7;42.2
78541;SHT31;67835;51.968;5.646;2023-05-07T10:11:59;26.6;42.5
78541;SHT31;67835;51.968;5.646;2023-05-07T10:14:28;26.6;43.0
78541;SHT31;67835;51.968;5.646;2023-05-07T10:16:57;26.5;43.0
78541;SHT31;67835;51.968;5.646;2023-05-07T10:19:28;26.4;43.1
78541;SHT31;67835;51.968;5.646;2023-05-07T10:22:02;26.4;42.7
78541;SHT31;67835;51.968;5.646;2023-05-07T10:24:35;26.3;43.3
78541;SHT31;67835;51.968;5.646;2023-05-07T10:27:10;26.2;43.3
78541;SHT31;67835;51.968;5.646;2023-05-07T10:29:50;26.2;43.8
78541;SHT31;67835;51.968;5.646;2023-05-07T10:32:37;26.1;44.6
78541;SHT31;67835;51.968;5.646;2023-05-07T10:35:11;26.0;45.4
78541;SHT31;67835;51.968;5.646;2023-05-07T10:37:43;25.9;45.7
78541;SHT31;67835;51.968;5.646;2023-05-07T10:40:13;25.9;45.5
78541;SHT31;67835;51.968;5.646;2023-05-07T10:42:55;25.9;45.8
78541;SHT31;67835;51.968;5.646;2023-05-07T10:45:26;26.0;46.4
78541;SHT31;67835;51.968;5.646;2023-05-07T10:48:08;26.0;45.8
78541;SHT31;67835;51.968;5.646;2023-05-07T10:50:39;26.2;45.4
78541;SHT31;67835;51.968;5.646;2023-05-07T10:53:24;26.3;44.6
78541;SHT31;67835;51.968;5.646;2023-05-07T10:56:29;26.5;45.4
78541;SHT31;67835;51.968;5.646;2023-05-07T11:01:56;26.8;44.1
78541;SHT31;67835;51.968;5.646;2023-05-07T11:04:25;26.9;43.7
78541;SHT31;67835;51.968;5.646;2023-05-07T11:11:50;27.0;43.4
78541;SHT31;67835;51.968;5.646;2023-05-07T11:14:45;27.0;43.6
78541;SHT31;67835;51.968;5.646;2023-05-07T11:17:14;27.1;43.1
78541;SHT31;67835;51.968;5.646;2023-05-07T11:19:53;27.2;43.0
78541;SHT31;67835;51.968;5.646;2023-05-07T11:22:40;27.3;42.0
78541;SHT31;67835;51.968;5.646;2023-05-07T11:25:09;27.4;42.1
78541;SHT31;67835;51.968;5.646;2023-05-07T11:27:38;27.5;41.8
78541;SHT31;67835;51.968;5.646;2023-05-07T11:30:11;27.5;41.6
78541;SHT31;67835;51.968;5.646;2023-05-07T11:32:47;27.5;41.8
78541;SHT31;67835;51.968;5.646;2023-05-07T11:35:16;27.6;41.9
78541;SHT31;67835;51.968;5.646;2023-05-07T11:37:46;27.6;41.8
78541;SHT31;67835;51.968;5.646;2023-05-07T11:40:18;27.6;42.7
78541;SHT31;67835;51.968;5.646;2023-05-07T11:42:47;27.6;41.6
78541;SHT31;67835;51.968;5.646;2023-05-07T11:45:24;27.6;41.6
78541;SHT31;67835;51.968;5.646;2023-05-07T11:47:53;27.6;42.1
78541;SHT31;67835;51.968;5.646;2023-05-07T11:50:22;27.6;42.0
78541;SHT31;67835;51.968;5.646;2023-05-07T11:52:52;27.6;42.9
78541;SHT31;67835;51.968;5.646;2023-05-07T11:55:20;27.6;42.1
78541;SHT31;67835;51.968;5.646;2023-05-07T11:57:50;27.6;42.0
78541;SHT31;67835;51.968;5.646;2023-05-07T12:00:19;27.6;41.5
78541;SHT31;67835;51.968;5.646;2023-05-07T12:02:48;27.6;41.4
78541;SHT31;67835;51.968;5.646;2023-05-07T12:05:16;27.6;41.2
78541;SHT31;67835;51.968;5.646;2023-05-07T12:07:45;27.5;41.2
78541;SHT31;67835;51.968;5.646;2023-05-07T12:10:14;27.5;41.5
78541;SHT31;67835;51.968;5.646;2023-05-07T12:12:49;27.5;40.9
78541;SHT31;67835;51.968;5.646;2023-05-07T12:15:22;27.5;41.3
78541;SHT31;67835;51.968;5.646;2023-05-07T12:17:52;27.5;41.9
78541;SHT31;67835;51.968;5.646;2023-05-07T12:20:21;27.5;41.6
78541;SHT31;67835;51.968;5.646;2023-05-07T12:22:50;27.6;42.5
78541;SHT31;67835;51.968;5.646;2023-05-07T12:25:20;27.7;42.6
78541;SHT31;67835;51.968;5.646;2023-05-07T12:27:53;27.9;42.2
78541;SHT31;67835;51.968;5.646;2023-05-07T12:30:24;28.1;42.9
78541;SHT31;67835;51.968;5.646;2023-05-07T12:32:54;28.4;41.3
78541;SHT31;67835;51.968;5.646;2023-05-07T12:35:31;28.6;40.7
78541;SHT31;67835;51.968;5.646;2023-05-07T12:38:00;28.8;38.7
78541;SHT31;67835;51.968;5.646;2023-05-07T12:40:38;29.0;38.7
78541;SHT31;67835;51.968;5.646;2023-05-07T12:43:09;29.1;38.6
78541;SHT31;67835;51.968;5.646;2023-05-07T12:45:44;29.2;39.2
78541;SHT31;67835;51.968;5.646;2023-05-07T12:48:14;29.4;38.5
78541;SHT31;67835;51.968;5.646;2023-05-07T12:50:43;29.5;38.7
78541;SHT31;67835;51.968;5.646;2023-05-07T12:53:12;29.6;38.1
78541;SHT31;67835;51.968;5.646;2023-05-07T12:55:44;29.7;38.0
78541;SHT31;67835;51.968;5.646;2023-05-07T12:58:18;29.8;37.5
78541;SHT31;67835;51.968;5.646;2023-05-07T13:00:49;29.8;37.5
78541;SHT31;67835;51.968;5.646;2023-05-07T13:03:25;29.9;37.3
78541;SHT31;67835;51.968;5.646;2023-05-07T13:05:55;29.9;37.4
78541;SHT31;67835;51.968;5.646;2023-05-07T13:08:27;29.9;37.2
78541;SHT31;67835;51.968;5.646;2023-05-07T13:10:57;29.9;36.8
78541;SHT31;67835;51.968;5.646;2023-05-07T13:13:30;29.8;36.9
78541;SHT31;67835;51.968;5.646;2023-05-07T13:15:59;29.7;37.1
78541;SHT31;67835;51.968;5.646;2023-05-07T13:18:30;29.6;36.3
78541;SHT31;67835;51.968;5.646;2023-05-07T13:21:00;29.5;36.7
78541;SHT31;67835;51.968;5.646;2023-05-07T13:23:29;29.5;37.7
78541;SHT31;67835;51.968;5.646;2023-05-07T13:25:57;29.4;38.1
78541;SHT31;67835;51.968;5.646;2023-05-07T13:28:26;29.4;38.5
78541;SHT31;67835;51.968;5.646;2023-05-07T13:30:54;29.4;37.6
78541;SHT31;67835;51.968;5.646;2023-05-07T13:33:26;29.4;37.3
78541;SHT31;67835;51.968;5.646;2023-05-07T13:35:54;29.4;38.3
78541;SHT31;67835;51.968;5.646;2023-05-07T13:38:27;29.4;36.5
78541;SHT31;67835;51.968;5.646;2023-05-07T13:40:55;29.4;35.6
78541;SHT31;67835;51.968;5.646;2023-05-07T13:43:24;29.4;37.0
78541;SHT31;67835;51.968;5.646;2023-05-07T13:45:53;29.5;37.7
78541;SHT31;67835;51.968;5.646;2023-05-07T13:48:21;29.5;37.8
78541;SHT31;67835;51.968;5.646;2023-05-07T13:50:50;29.6;37.1
78541;SHT31;67835;51.968;5.646;2023-05-07T13:53:19;29.7;36.2
78541;SHT31;67835;51.968;5.646;2023-05-07T13:55:50;29.7;35.7
78541;SHT31;67835;51.968;5.646;2023-05-07T13:58:18;29.8;36.3
78541;SHT31;67835;51.968;5.646;2023-05-07T14:00:47;29.8;37.5
78541;SHT31;67835;51.968;5.646;2023-05-07T14:03:16;29.8;37.5
78541;SHT31;67835;51.968;5.646;2023-05-07T14:05:46;29.8;37.4
78541;SHT31;67835;51.968;5.646;2023-05-07T14:08:15;29.8;37.5
78541;SHT31;67835;51.968;5.646;2023-05-07T14:10:46;29.8;37.4
78541;SHT31;67835;51.968;5.646;2023-05-07T14:13:15;29.8;37.7
78541;SHT31;67835;51.968;5.646;2023-05-07T14:15:43;29.7;36.9
78541;SHT31;67835;51.968;5.646;2023-05-07T14:18:13;29.6;37.3
78541;SHT31;67835;51.968;5.646;2023-05-07T14:20:42;29.6;37.1
78541;SHT31;67835;51.968;5.646;2023-05-07T14:23:15;29.5;38.8
78541;SHT31;67835;51.968;5.646;2023-05-07T14:25:46;29.4;38.2
78541;SHT31;67835;51.968;5.646;2023-05-07T14:28:14;29.4;38.2
78541;SHT31;67835;51.968;5.646;2023-05-07T14:30:42;29.4;38.4
78541;SHT31;67835;51.968;5.646;2023-05-07T14:33:11;29.3;38.2
78541;SHT31;67835;51.968;5.646;2023-05-07T14:35:40;29.2;38.2
78541;SHT31;67835;51.968;5.646;2023-05-07T14:38:14;29.1;38.7
78541;SHT31;67835;51.968;5.646;2023-05-07T14:40:42;29.1;39.3
78541;SHT31;67835;51.968;5.646;2023-05-07T14:43:11;29.0;38.4
78541;SHT31;67835;51.968;5.646;2023-05-07T14:45:40;28.9;39.2
78541;SHT31;67835;51.968;5.646;2023-05-07T14:48:08;28.8;39.1
78541;SHT31;67835;51.968;5.646;2023-05-07T14:50:41;28.7;39.3
78541;SHT31;67835;51.968;5.646;2023-05-07T14:53:09;28.7;39.6
78541;SHT31;67835;51.968;5.646;2023-05-07T14:55:40;28.6;39.7
78541;SHT31;67835;51.968;5.646;2023-05-07T14:58:10;28.6;39.1
78541;SHT31;67835;51.968;5.646;2023-05-07T15:00:40;28.5;40.2
78541;SHT31;67835;51.968;5.646;2023-05-07T15:03:12;28.5;40.1
78541;SHT31;67835;51.968;5.646;2023-05-07T15:05:41;28.5;40.5
78541;SHT31;67835;51.968;5.646;2023-05-07T15:08:10;28.5;39.9
78541;SHT31;67835;51.968;5.646;2023-05-07T15:10:39;28.5;39.8
78541;SHT31;67835;51.968;5.646;2023-05-07T15:13:10;28.5;39.7
78541;SHT31;67835;51.968;5.646;2023-05-07T15:15:40;28.3;39.6
78541;SHT31;67835;51.968;5.646;2023-05-07T15:18:08;28.1;39.5
78541;SHT31;67835;51.968;5.646;2023-05-07T15:20:37;27.8;39.8
78541;SHT31;67835;51.968;5.646;2023-05-07T15:23:08;27.4;39.5
78541;SHT31;67835;51.968;5.646;2023-05-07T15:25:38;26.9;40.5
78541;SHT31;67835;51.968;5.646;2023-05-07T15:28:07;26.5;40.7
78541;SHT31;67835;51.968;5.646;2023-05-07T15:30:35;26.2;41.3
78541;SHT31;67835;51.968;5.646;2023-05-07T15:33:04;25.9;41.2
78541;SHT31;67835;51.968;5.646;2023-05-07T15:35:33;25.6;42.0
78541;SHT31;67835;51.968;5.646;2023-05-07T15:38:03;25.3;42.9
78541;SHT31;67835;51.968;5.646;2023-05-07T15:40:32;24.9;44.2
78541;SHT31;67835;51.968;5.646;2023-05-07T15:43:01;24.6;45.6
78541;SHT31;67835;51.968;5.646;2023-05-07T15:45:30;24.3;46.6
78541;SHT31;67835;51.968;5.646;2023-05-07T15:47:59;24.1;50.9
78541;SHT31;67835;51.968;5.646;2023-05-07T15:50:29;23.8;52.5
78541;SHT31;67835;51.968;5.646;2023-05-07T15:52:58;23.5;53.8
78541;SHT31;67835;51.968;5.646;2023-05-07T15:55:29;23.2;54.8
78541;SHT31;67835;51.968;5.646;2023-05-07T15:57:58;22.9;55.0
78541;SHT31;67835;51.968;5.646;2023-05-07T16:00:27;22.6;56.9
78541;SHT31;67835;51.968;5.646;2023-05-07T16:02:56;22.3;57.9
78541;SHT31;67835;51.968;5.646;2023-05-07T16:05:25;22.1;58.8
78541;SHT31;67835;51.968;5.646;2023-05-07T16:07:55;22.0;58.0
78541;SHT31;67835;51.968;5.646;2023-05-07T16:10:25;21.8;60.6
78541;SHT31;67835;51.968;5.646;2023-05-07T16:12:54;21.7;61.2
78541;SHT31;67835;51.968;5.646;2023-05-07T16:15:24;21.6;59.3
78541;SHT31;67835;51.968;5.646;2023-05-07T16:17:52;21.6;60.5
78541;SHT31;67835;51.968;5.646;2023-05-07T16:20:25;21.5;60.1
78541;SHT31;67835;51.968;5.646;2023-05-07T16:22:55;21.4;61.8
78541;SHT31;67835;51.968;5.646;2023-05-07T16:25:27;21.3;59.9
78541;SHT31;67835;51.968;5.646;2023-05-07T16:27:55;21.3;61.8